Route Details

Aircraft Information
Group: Boeing 737 Only
Types: B738
Route Data
Distance: 198nm
Duration: 0h 45m
Origin METAR: MMOX 160040Z 13012KT 6SM VCTS BKN030CB BKN080 OVC220 19/14 A3013 RMK 8/936 OCNL DROPS LWR VSBY W
Dest. METAR: MMMX 160146Z 14006KT 6SM BKN015CB OVC080 16/13 A3028 NOSIG RMK 8/96/ HZY RAE30 OCNL DROPS
Freight Data
(for Aug 16, 2022)
Load Factor:
94%
Manifested Cargo: 50,133lbs
Financial History
Total Freight: 120,901lbs
Average Load: 0lbs/flt
Fuel Used: 14,970lbs
Avg. Fuel Used: 0lbs/flt
Fuel Expense: $9,980
Avg. Fuel Expense: $0
Avg. Fuel Cost: $0/lbs
Total Gross Income: $377,211
Pilot Pay: $787
Total Expenses: $61,962
Total Revenue: $304,544
Average Revenue: $0

Capitol Logistics 710




MMOX
Xoxocotlán International Airport
Oaxaca, MX
MMMX
Benito Juárez International Airport
Mexico City, MX

Activity Log

Date Flight Route Aircraft Duration
08/06/2022 CPX710 MAXIL4 MAXIL UJ33 KODEK UT157 LARLO LARL2A B738 0h 49m
05/31/2022 CPX3134 MAXIL4 MAXIL UJ33 KODEK UT157 LARLO LARL1A B738 0h 53m
03/09/2022 CPX3134 MAXIL4 MAXIL UJ33 KODEK UT157 LARLO LARL1A B738 1h 01m